Terminal Aerodrome Forecast
Issued by NWS

Home | Current Version | Previous Version | Text Only | Print | Product List | Glossary Off
Versions: 1 2 3 4 5 6 7 8 9 10 11 12 13 14 15 16 17

000
FTUS43 KICT 301733
TAFCNU
TAF
KCNU 301733Z 3018/3118 35014KT P6SM OVC018
     FM310000 36008KT P6SM BKN025
     FM310800 36006KT 5SM BR OVC009
     FM311600 02008KT P6SM BKN012 OVC025=

USA.gov is the U.S. government's official web portal to all federal, state and local government web resources and services.